createdAt,value
2023-05-04T00:00:27.924Z,13.13
2023-05-04T00:02:56.544Z,12.90
2023-05-04T00:05:24.125Z,13.98
2023-05-04T00:07:51.545Z,13.68
2023-05-04T00:10:19.698Z,15.90
2023-05-04T00:12:47.353Z,17.98
2023-05-04T00:15:14.560Z,11.60
2023-05-04T00:17:42.479Z,14.13
2023-05-04T00:20:10.377Z,13.38
2023-05-04T00:22:37.881Z,17.30
2023-05-04T00:25:06.825Z,16.20
2023-05-04T00:27:35.512Z,15.10
2023-05-04T00:30:03.265Z,15.23
2023-05-04T00:32:31.493Z,12.23
2023-05-04T00:35:00.125Z,13.38
2023-05-04T00:37:27.654Z,14.32
2023-05-04T00:39:55.386Z,16.70
2023-05-04T00:42:22.726Z,18.73
2023-05-04T00:44:51.297Z,17.75
2023-05-04T00:47:20.037Z,16.85
2023-05-04T00:49:47.934Z,17.40
2023-05-04T00:52:15.190Z,16.23
2023-05-04T00:54:43.983Z,14.52
2023-05-04T00:57:11.358Z,14.88
2023-05-04T00:59:39.555Z,17.98
2023-05-04T01:02:06.923Z,13.52
2023-05-04T01:04:34.704Z,14.25
2023-05-04T01:07:15.222Z,15.85
2023-05-04T01:12:37.015Z,12.40
2023-05-04T01:15:12.088Z,15.05
2023-05-04T01:17:39.483Z,16.77
2023-05-04T01:20:07.871Z,15.00
2023-05-04T01:22:36.992Z,15.95
2023-05-04T01:25:05.653Z,19.27
2023-05-04T01:27:50.769Z,16.08
2023-05-04T01:30:24.389Z,14.20
2023-05-04T01:32:51.743Z,17.92
2023-05-04T01:35:19.235Z,15.93
2023-05-04T01:37:47.249Z,16.52
2023-05-04T01:40:14.545Z,16.10
2023-05-04T01:42:41.949Z,27.88
2023-05-04T01:45:09.720Z,17.45
2023-05-04T01:47:37.431Z,17.73
2023-05-04T01:50:06.327Z,15.53
2023-05-04T01:52:36.950Z,16.45
2023-05-04T01:57:34.318Z,17.52
2023-05-04T02:00:01.628Z,16.63
2023-05-04T02:02:43.285Z,14.15
2023-05-04T02:05:13.086Z,17.95
2023-05-04T02:07:40.422Z,16.87
2023-05-04T02:10:09.054Z,14.55
2023-05-04T02:12:36.637Z,16.10
2023-05-04T02:15:04.750Z,17.75
2023-05-04T02:17:32.873Z,16.08
2023-05-04T02:20:00.346Z,15.00
2023-05-04T02:22:27.555Z,18.73
2023-05-04T02:24:55.346Z,14.98
2023-05-04T02:27:22.960Z,21.50
2023-05-04T02:29:50.142Z,15.50
2023-05-04T02:32:17.417Z,15.00
2023-05-04T02:34:44.726Z,19.30
2023-05-04T02:37:11.968Z,16.33
2023-05-04T02:39:39.520Z,17.40
2023-05-04T02:42:06.776Z,19.65
2023-05-04T02:44:34.496Z,16.05
2023-05-04T02:47:02.874Z,16.40
2023-05-04T02:49:30.721Z,20.20
2023-05-04T02:51:58.130Z,20.58
2023-05-04T02:54:25.677Z,20.13
2023-05-04T02:56:53.298Z,24.73
2023-05-04T02:59:20.881Z,15.45
2023-05-04T03:01:48.355Z,17.00
2023-05-04T03:04:15.867Z,20.10
2023-05-04T03:06:43.241Z,20.87
2023-05-04T03:09:11.118Z,21.70
2023-05-04T03:11:38.684Z,19.90
2023-05-04T03:14:06.966Z,21.90
2023-05-04T03:16:37.045Z,21.77
2023-05-04T03:19:04.830Z,21.40
2023-05-04T03:21:32.080Z,29.37
2023-05-04T03:24:04.269Z,24.42
2023-05-04T03:26:31.768Z,23.45
2023-05-04T03:29:02.733Z,21.33
2023-05-04T03:31:30.437Z,17.40
2023-05-04T03:33:58.450Z,18.83
2023-05-04T03:36:26.473Z,18.13
2023-05-04T03:38:53.861Z,21.58
2023-05-04T03:41:21.493Z,21.38
2023-05-04T03:43:48.668Z,23.35
2023-05-04T03:46:16.051Z,23.52
2023-05-04T03:48:44.621Z,27.88
2023-05-04T03:51:15.672Z,22.88
2023-05-04T03:53:44.673Z,21.98
2023-05-04T03:56:14.072Z,22.80
2023-05-04T03:58:41.820Z,20.58
2023-05-04T04:01:13.347Z,24.70
2023-05-04T04:03:42.318Z,24.00
2023-05-04T04:06:10.892Z,26.90
2023-05-04T04:08:38.904Z,21.95
2023-05-04T04:11:06.555Z,24.98
2023-05-04T04:13:36.722Z,22.20
2023-05-04T04:16:06.975Z,24.33
2023-05-04T04:18:34.801Z,22.98
2023-05-04T04:21:02.060Z,25.08
2023-05-04T04:23:29.936Z,22.38
2023-05-04T04:25:57.075Z,27.88
2023-05-04T04:28:24.515Z,24.10
2023-05-04T04:30:51.758Z,23.27
2023-05-04T04:33:19.897Z,25.10
2023-05-04T04:35:48.529Z,27.08
2023-05-04T04:38:15.830Z,25.58
2023-05-04T04:40:42.947Z,27.92
2023-05-04T04:43:10.961Z,24.55
2023-05-04T04:45:38.321Z,27.10
2023-05-04T04:48:05.634Z,25.20
2023-05-04T04:50:34.290Z,26.25
2023-05-04T04:53:01.542Z,24.83
2023-05-04T04:55:28.741Z,21.90
2023-05-04T04:57:56.356Z,21.63
2023-05-04T05:00:24.357Z,25.27
2023-05-04T05:02:52.046Z,32.60
2023-05-04T05:05:19.368Z,27.02
2023-05-04T05:07:46.906Z,28.48
2023-05-04T05:10:14.175Z,30.00
2023-05-04T05:12:41.711Z,28.33
2023-05-04T05:15:09.571Z,25.90
2023-05-04T05:17:37.925Z,25.05
2023-05-04T05:20:12.136Z,26.25
2023-05-04T05:22:39.964Z,28.75
2023-05-04T05:25:07.830Z,23.00
2023-05-04T05:27:35.303Z,24.15
2023-05-04T05:30:03.890Z,22.35
2023-05-04T05:32:32.657Z,19.83
2023-05-04T05:34:59.856Z,20.48
2023-05-04T05:37:27.930Z,26.67
2023-05-04T05:39:55.248Z,24.80
2023-05-04T05:42:22.419Z,26.23
2023-05-04T05:44:50.113Z,21.02
2023-05-04T05:47:17.359Z,25.10
2023-05-04T05:49:46.249Z,27.75
2023-05-04T05:52:21.055Z,23.20
2023-05-04T05:54:49.037Z,23.08
2023-05-04T05:57:16.574Z,23.17
2023-05-04T05:59:45.037Z,24.00
2023-05-04T06:02:15.030Z,25.67
2023-05-04T06:04:43.211Z,24.10
2023-05-04T06:07:10.786Z,21.85
2023-05-04T06:09:38.057Z,23.73
2023-05-04T06:12:07.675Z,21.88
2023-05-04T06:14:35.113Z,23.85
2023-05-04T06:17:02.798Z,23.30
2023-05-04T06:19:31.586Z,26.13
2023-05-04T06:21:59.095Z,23.60
2023-05-04T06:24:27.363Z,22.15
2023-05-04T06:26:55.497Z,22.60
2023-05-04T06:29:26.327Z,23.98
2023-05-04T06:31:53.811Z,26.92
2023-05-04T06:34:21.793Z,21.50
2023-05-04T06:36:54.471Z,19.02
2023-05-04T06:39:21.780Z,19.80
2023-05-04T06:41:49.097Z,19.23
2023-05-04T06:44:19.175Z,21.52
2023-05-04T06:46:48.066Z,25.40
2023-05-04T06:49:15.596Z,22.65
2023-05-04T06:51:43.671Z,19.83
2023-05-04T06:54:14.580Z,18.38
2023-05-04T06:56:42.421Z,25.40
2023-05-04T06:59:10.396Z,19.95
2023-05-04T07:01:38.109Z,20.98
2023-05-04T07:04:05.712Z,23.02
2023-05-04T07:06:33.881Z,22.45
2023-05-04T07:09:01.427Z,24.58
2023-05-04T07:11:31.683Z,21.23
2023-05-04T07:13:59.742Z,20.58
2023-05-04T07:16:44.675Z,20.23
2023-05-04T07:19:11.912Z,22.45
2023-05-04T07:21:50.227Z,19.15
2023-05-04T07:24:17.750Z,15.25
2023-05-04T07:26:45.701Z,18.27
2023-05-04T07:29:13.195Z,24.10
2023-05-04T07:31:40.609Z,19.55
2023-05-04T07:34:08.194Z,17.75
2023-05-04T07:36:36.462Z,20.33
2023-05-04T07:39:07.892Z,19.05
2023-05-04T07:41:38.638Z,17.73
2023-05-04T07:44:08.831Z,17.67
2023-05-04T07:46:36.358Z,17.45
2023-05-04T07:49:04.900Z,17.67
2023-05-04T07:51:35.229Z,17.48
2023-05-04T07:54:02.822Z,18.17
2023-05-04T07:56:30.493Z,21.88
2023-05-04T07:58:58.055Z,17.05
2023-05-04T08:01:25.434Z,18.50
2023-05-04T08:03:53.054Z,19.30
2023-05-04T08:06:20.573Z,19.73
2023-05-04T08:08:53.505Z,19.42
2023-05-04T08:11:21.593Z,21.02
2023-05-04T08:13:49.794Z,17.35
2023-05-04T08:16:17.141Z,23.52
2023-05-04T08:18:44.611Z,20.45
2023-05-04T08:21:18.906Z,23.10
2023-05-04T08:23:46.590Z,18.83
2023-05-04T08:26:13.883Z,22.13
2023-05-04T08:28:41.467Z,17.15
2023-05-04T08:31:09.363Z,17.70
2023-05-04T08:33:36.839Z,21.48
2023-05-04T08:36:05.688Z,21.30
2023-05-04T08:38:33.672Z,18.65
2023-05-04T08:41:07.836Z,19.02
2023-05-04T08:43:36.528Z,18.02
2023-05-04T08:46:09.487Z,18.38
2023-05-04T08:48:43.359Z,20.17
2023-05-04T08:51:10.931Z,16.92
2023-05-04T08:53:40.542Z,19.65
2023-05-04T08:56:10.623Z,18.58
2023-05-04T08:58:38.385Z,15.63
2023-05-04T09:01:08.660Z,21.52
2023-05-04T09:03:36.354Z,15.85
2023-05-04T09:06:07.299Z,19.80
2023-05-04T09:08:36.286Z,17.80
2023-05-04T09:11:05.112Z,19.42
2023-05-04T09:13:33.140Z,18.27
2023-05-04T09:16:00.494Z,20.52
2023-05-04T09:18:41.184Z,20.58
2023-05-04T09:21:09.836Z,19.02
2023-05-04T09:23:50.496Z,19.98
2023-05-04T09:26:34.871Z,18.90
2023-05-04T09:29:16.588Z,18.13
2023-05-04T09:31:51.161Z,18.67
2023-05-04T09:34:23.079Z,18.92
2023-05-04T09:37:01.968Z,22.42
2023-05-04T09:39:30.645Z,17.48
2023-05-04T09:41:58.051Z,16.83
2023-05-04T09:44:28.876Z,16.77
2023-05-04T09:46:59.960Z,20.30
2023-05-04T09:49:32.932Z,18.55
2023-05-04T09:52:06.036Z,25.27
2023-05-04T09:54:39.074Z,20.88
2023-05-04T09:57:41.300Z,18.15
2023-05-04T10:00:18.645Z,19.40
2023-05-04T10:02:47.648Z,19.05
2023-05-04T10:05:17.425Z,17.13
2023-05-04T10:07:45.973Z,19.15
2023-05-04T10:10:14.614Z,17.38
2023-05-04T10:12:42.918Z,20.77
2023-05-04T10:15:11.850Z,18.27
2023-05-04T10:18:15.907Z,19.47
2023-05-04T10:21:16.428Z,16.75
2023-05-04T10:23:44.462Z,17.10
2023-05-04T10:26:40.834Z,19.42
2023-05-04T10:29:32.971Z,19.80
2023-05-04T10:32:04.612Z,14.73
2023-05-04T10:34:33.624Z,18.88
2023-05-04T10:37:04.805Z,18.90
2023-05-04T10:39:35.176Z,15.82
2023-05-04T10:42:06.115Z,16.95
2023-05-04T10:44:36.052Z,19.08
2023-05-04T10:47:05.669Z,19.58
2023-05-04T10:49:36.133Z,18.83
2023-05-04T10:52:08.263Z,16.88
2023-05-04T10:54:36.757Z,16.17
2023-05-04T10:57:06.102Z,18.70
2023-05-04T10:59:36.851Z,17.70
2023-05-04T11:02:07.835Z,18.40
2023-05-04T11:04:36.411Z,18.48
2023-05-04T11:07:09.104Z,19.40
2023-05-04T11:09:37.947Z,19.27
2023-05-04T11:12:05.948Z,19.92
2023-05-04T11:14:40.934Z,17.85
2023-05-04T11:19:52.966Z,18.83
2023-05-04T11:22:20.527Z,14.98
2023-05-04T11:24:51.125Z,17.00
2023-05-04T11:27:25.677Z,16.23
2023-05-04T11:29:55.589Z,20.52
2023-05-04T11:32:24.516Z,18.63
2023-05-04T11:35:20.676Z,18.02
2023-05-04T11:37:49.645Z,16.60
2023-05-04T11:40:18.275Z,19.30
2023-05-04T11:42:51.285Z,19.48
2023-05-04T11:45:19.453Z,18.90
2023-05-04T11:47:47.293Z,18.27
2023-05-04T11:50:18.165Z,16.80
2023-05-04T11:52:46.202Z,15.68
2023-05-04T11:55:35.729Z,18.17
2023-05-04T11:58:07.410Z,19.88
2023-05-04T12:00:42.278Z,19.75
2023-05-04T12:03:17.640Z,17.90
2023-05-04T12:05:53.133Z,19.77
2023-05-04T12:08:42.316Z,18.60
2023-05-04T12:11:26.572Z,20.33
2023-05-04T12:14:10.495Z,17.73
2023-05-04T12:16:50.216Z,18.73
2023-05-04T12:19:18.823Z,18.70
2023-05-04T12:21:52.057Z,22.75
2023-05-04T12:24:22.132Z,20.40
2023-05-04T12:26:49.693Z,17.25
2023-05-04T12:29:17.183Z,18.67
2023-05-04T12:31:44.525Z,20.55
2023-05-04T12:34:12.039Z,22.77
2023-05-04T12:36:39.551Z,19.50
2023-05-04T12:39:06.988Z,18.85
2023-05-04T12:41:40.842Z,18.90
2023-05-04T12:44:09.494Z,20.40
2023-05-04T12:46:37.544Z,18.80
2023-05-04T12:49:08.766Z,20.70
2023-05-04T12:51:36.079Z,19.52
2023-05-04T12:54:04.438Z,20.50
2023-05-04T12:56:34.916Z,18.85
2023-05-04T12:59:04.160Z,20.70
2023-05-04T13:01:31.855Z,19.00
2023-05-04T13:03:59.708Z,19.77
2023-05-04T13:06:27.387Z,22.67
2023-05-04T13:08:54.781Z,21.05
2023-05-04T13:11:22.016Z,17.48
2023-05-04T13:13:49.280Z,20.50
2023-05-04T13:16:17.206Z,18.98
2023-05-04T13:18:44.585Z,23.67
2023-05-04T13:21:12.032Z,23.83
2023-05-04T13:23:39.189Z,19.20
2023-05-04T13:26:07.060Z,20.58
2023-05-04T13:28:37.255Z,22.48
2023-05-04T13:31:06.734Z,20.95
2023-05-04T13:33:34.916Z,20.42
2023-05-04T13:36:08.219Z,18.90
2023-05-04T13:38:37.559Z,18.35
2023-05-04T13:41:04.819Z,23.58
2023-05-04T13:43:34.008Z,21.02
2023-05-04T13:46:07.590Z,22.07
2023-05-04T13:48:37.896Z,22.02
2023-05-04T13:51:06.109Z,24.00
2023-05-04T13:53:34.814Z,21.55
2023-05-04T13:56:05.527Z,21.08
2023-05-04T13:58:35.129Z,18.83
2023-05-04T14:01:04.990Z,19.70
2023-05-04T14:03:33.774Z,20.70
2023-05-04T14:06:01.358Z,22.17
2023-05-04T14:08:29.114Z,20.20
2023-05-04T14:10:57.647Z,17.67
2023-05-04T14:13:28.126Z,21.67
2023-05-04T14:15:55.883Z,22.60
2023-05-04T14:18:23.554Z,19.67
2023-05-04T14:20:50.739Z,23.15
2023-05-04T14:23:18.406Z,22.27
2023-05-04T14:25:52.500Z,23.98
2023-05-04T14:28:20.111Z,24.63
2023-05-04T14:30:50.911Z,20.25
2023-05-04T14:33:18.725Z,26.20
2023-05-04T14:35:51.952Z,21.60
2023-05-04T14:38:19.312Z,23.35
2023-05-04T14:40:48.960Z,25.50
2023-05-04T14:43:17.183Z,21.17
2023-05-04T14:45:44.646Z,18.10
2023-05-04T14:48:12.011Z,19.23
2023-05-04T14:50:39.886Z,23.08
2023-05-04T14:53:08.468Z,24.35
2023-05-04T14:55:41.938Z,24.48
2023-05-04T14:58:13.007Z,25.48
2023-05-04T15:00:40.158Z,20.83
2023-05-04T15:03:07.733Z,20.25
2023-05-04T15:05:35.278Z,21.20
2023-05-04T15:08:04.787Z,20.55
2023-05-04T15:10:32.221Z,23.17
2023-05-04T15:13:00.204Z,23.02
2023-05-04T15:15:27.823Z,20.98
2023-05-04T15:17:55.300Z,21.50
2023-05-04T15:20:23.146Z,23.17
2023-05-04T15:22:53.992Z,19.58
2023-05-04T15:25:24.317Z,21.40
2023-05-04T15:27:51.728Z,18.77
2023-05-04T15:30:19.601Z,13.80
2023-05-04T15:32:49.295Z,7.18
2023-05-04T15:35:16.653Z,7.93
2023-05-04T15:37:46.155Z,9.48
2023-05-04T15:40:14.127Z,8.70
2023-05-04T15:42:42.644Z,9.30
2023-05-04T15:45:10.743Z,8.48
2023-05-04T15:47:39.495Z,8.93
2023-05-04T15:50:07.613Z,6.90
2023-05-04T15:52:35.419Z,7.80
2023-05-04T15:55:20.429Z,8.52
2023-05-04T15:57:55.596Z,6.70
2023-05-04T16:00:23.103Z,7.80
2023-05-04T16:02:51.004Z,7.68
2023-05-04T16:05:19.303Z,6.30
2023-05-04T16:07:49.126Z,6.63
2023-05-04T16:10:17.197Z,5.95
2023-05-04T16:12:44.909Z,6.45
2023-05-04T16:15:15.637Z,4.90
2023-05-04T16:17:47.438Z,6.55
2023-05-04T16:20:15.621Z,6.13
2023-05-04T16:22:45.474Z,5.63
2023-05-04T16:25:12.821Z,6.40
2023-05-04T16:27:41.260Z,4.85
2023-05-04T16:30:11.816Z,5.60
2023-05-04T16:32:39.828Z,5.65
2023-05-04T16:35:08.334Z,6.00
2023-05-04T16:37:38.040Z,5.22
2023-05-04T16:42:44.923Z,6.20
2023-05-04T16:45:15.578Z,6.85
2023-05-04T16:47:46.717Z,5.07
2023-05-04T16:50:14.684Z,5.72
2023-05-04T16:52:43.689Z,7.85
2023-05-04T16:55:15.704Z,4.80
2023-05-04T16:57:43.104Z,5.28
2023-05-04T17:00:11.887Z,5.18
2023-05-04T17:02:40.750Z,7.65
2023-05-04T17:05:10.609Z,5.78
2023-05-04T17:07:43.786Z,5.18
2023-05-04T17:10:22.719Z,4.90
2023-05-04T17:12:54.544Z,5.75
2023-05-04T17:15:22.481Z,5.00
2023-05-04T17:17:50.397Z,4.10
2023-05-04T17:20:17.662Z,6.50
2023-05-04T17:22:45.542Z,5.35
2023-05-04T17:25:13.479Z,5.43
2023-05-04T17:27:41.398Z,5.07
2023-05-04T17:30:12.737Z,4.43
2023-05-04T17:32:40.814Z,3.75
2023-05-04T17:35:21.099Z,5.03
2023-05-04T17:37:57.570Z,5.32
2023-05-04T17:40:25.857Z,4.03
2023-05-04T17:42:53.354Z,5.10
2023-05-04T17:45:21.468Z,4.93
2023-05-04T17:47:54.034Z,4.40
2023-05-04T17:50:22.128Z,4.35
2023-05-04T17:52:56.174Z,5.50
2023-05-04T17:55:25.177Z,4.13
2023-05-04T17:57:56.424Z,5.68
2023-05-04T18:00:24.740Z,4.43
2023-05-04T18:02:55.322Z,6.15
2023-05-04T18:05:30.521Z,5.68
2023-05-04T18:08:04.431Z,4.47
2023-05-04T18:10:43.650Z,6.43
2023-05-04T18:13:18.365Z,3.72
2023-05-04T18:15:46.155Z,6.82
2023-05-04T18:18:14.971Z,5.10
2023-05-04T18:20:46.035Z,4.20
2023-05-04T18:23:23.948Z,8.20
2023-05-04T18:25:51.901Z,5.50
2023-05-04T18:28:36.065Z,4.70
2023-05-04T18:31:07.435Z,5.50
2023-05-04T18:33:38.647Z,7.30
2023-05-04T18:36:13.238Z,6.10
2023-05-04T18:38:41.697Z,6.18
2023-05-04T18:41:09.523Z,6.63
2023-05-04T18:43:37.019Z,5.10
2023-05-04T18:46:10.751Z,5.05
2023-05-04T18:48:38.594Z,5.07
2023-05-04T18:51:06.028Z,6.50
2023-05-04T18:53:37.040Z,8.23
2023-05-04T18:56:08.491Z,6.68
2023-05-04T18:58:39.292Z,5.63
2023-05-04T19:01:07.135Z,7.45
2023-05-04T19:03:49.161Z,6.35
2023-05-04T19:06:19.257Z,8.07
2023-05-04T19:08:46.788Z,6.03
2023-05-04T19:11:16.270Z,4.95
2023-05-04T19:13:46.038Z,7.55
2023-05-04T19:16:22.680Z,7.15
2023-05-04T19:18:50.154Z,5.25
2023-05-04T19:21:17.457Z,7.55
2023-05-04T19:23:44.720Z,6.40
2023-05-04T19:26:12.261Z,8.15
2023-05-04T19:28:40.381Z,7.25
2023-05-04T19:31:07.883Z,6.47
2023-05-04T19:33:47.382Z,6.00
2023-05-04T19:36:17.386Z,7.07
2023-05-04T19:38:45.058Z,7.00
2023-05-04T19:41:14.178Z,6.28
2023-05-04T19:43:42.733Z,6.57
2023-05-04T19:46:10.252Z,8.43
2023-05-04T19:48:38.406Z,5.88
2023-05-04T19:51:05.639Z,5.00
2023-05-04T19:53:33.131Z,7.32
2023-05-04T19:56:00.792Z,6.85
2023-05-04T19:58:30.479Z,6.35
2023-05-04T20:00:57.973Z,8.10
2023-05-04T20:03:26.063Z,10.23
2023-05-04T20:05:54.061Z,6.05
2023-05-04T20:08:21.629Z,6.68
2023-05-04T20:10:49.451Z,8.10
2023-05-04T20:13:16.907Z,9.52
2023-05-04T20:15:45.148Z,6.30
2023-05-04T20:18:12.458Z,6.68
2023-05-04T20:20:39.682Z,7.55
2023-05-04T20:23:07.978Z,8.60
2023-05-04T20:25:35.295Z,7.38
2023-05-04T20:28:04.763Z,9.00
2023-05-04T20:30:32.837Z,7.25
2023-05-04T20:33:00.178Z,7.40
2023-05-04T20:35:28.273Z,8.93
2023-05-04T20:37:55.720Z,9.48
2023-05-04T20:40:22.883Z,6.75
2023-05-04T20:42:50.819Z,9.30
2023-05-04T20:45:18.413Z,9.70
2023-05-04T20:47:45.942Z,11.82
2023-05-04T20:50:13.673Z,7.70
2023-05-04T20:52:41.616Z,8.43
2023-05-04T20:55:09.420Z,8.85
2023-05-04T20:57:37.068Z,15.50
2023-05-04T21:00:06.920Z,8.68
2023-05-04T21:02:37.577Z,11.70
2023-05-04T21:05:05.089Z,8.93
2023-05-04T21:07:38.135Z,8.68
2023-05-04T21:10:06.727Z,9.20
2023-05-04T21:12:43.769Z,10.80
2023-05-04T21:15:12.653Z,9.45
2023-05-04T21:17:40.497Z,10.27
2023-05-04T21:20:11.971Z,13.55
2023-05-04T21:22:39.338Z,7.57
2023-05-04T21:25:07.351Z,10.05
2023-05-04T21:27:34.859Z,12.25
2023-05-04T21:30:08.828Z,10.65
2023-05-04T21:32:36.917Z,9.55
2023-05-04T21:35:05.670Z,10.93
2023-05-04T21:37:36.333Z,9.63
2023-05-04T21:40:04.673Z,10.07
2023-05-04T21:42:35.637Z,9.90
2023-05-04T21:45:03.793Z,11.25
2023-05-04T21:47:32.005Z,7.70
2023-05-04T21:50:04.688Z,8.77
2023-05-04T21:52:35.361Z,8.50
2023-05-04T21:55:03.054Z,8.23
2023-05-04T21:57:34.914Z,8.77
2023-05-04T22:00:02.941Z,9.90
2023-05-04T22:02:32.875Z,9.43
2023-05-04T22:05:00.215Z,8.70
2023-05-04T22:07:28.067Z,8.15
2023-05-04T22:09:55.398Z,7.05
2023-05-04T22:12:22.865Z,5.43
2023-05-04T22:14:50.492Z,5.38
2023-05-04T22:17:17.908Z,6.20
2023-05-04T22:19:45.493Z,5.35
2023-05-04T22:22:12.858Z,6.18
2023-05-04T22:24:40.029Z,5.63
2023-05-04T22:27:07.826Z,6.43
2023-05-04T22:29:36.197Z,5.25
2023-05-04T22:32:04.779Z,5.38
2023-05-04T22:34:32.672Z,4.95
2023-05-04T22:37:00.313Z,3.15
2023-05-04T22:39:27.556Z,6.05
2023-05-04T22:41:54.921Z,4.85
2023-05-04T22:44:49.600Z,3.15
2023-05-04T22:47:19.230Z,5.53
2023-05-04T22:49:47.651Z,4.20
2023-05-04T22:52:15.206Z,2.95
2023-05-04T22:54:42.485Z,3.42
2023-05-04T22:57:13.558Z,5.78
2023-05-04T23:00:01.525Z,3.55
2023-05-04T23:02:34.523Z,4.93
2023-05-04T23:05:05.176Z,4.75
2023-05-04T23:07:32.798Z,3.42
2023-05-04T23:10:00.313Z,3.95
2023-05-04T23:12:28.265Z,5.20
2023-05-04T23:14:55.609Z,7.25
2023-05-04T23:17:33.523Z,3.38
2023-05-04T23:20:06.140Z,3.35
2023-05-04T23:22:37.166Z,5.28
2023-05-04T23:25:05.110Z,5.50
2023-05-04T23:27:34.659Z,4.03
2023-05-04T23:30:01.835Z,5.28
2023-05-04T23:32:36.875Z,4.95
2023-05-04T23:35:04.906Z,4.15
2023-05-04T23:37:34.973Z,3.80
2023-05-04T23:40:05.463Z,4.38
2023-05-04T23:42:32.976Z,3.95
2023-05-04T23:45:00.279Z,7.22
2023-05-04T23:47:32.094Z,4.28
2023-05-04T23:50:01.379Z,5.22
2023-05-04T23:52:28.886Z,4.72
2023-05-04T23:54:56.516Z,4.72
2023-05-04T23:57:24.157Z,4.45
2023-05-04T23:59:52.684Z,3.65
